sensor_id;sensor_type;location;lat;lon;timestamp;P1;durP1;ratioP1;P2;durP2;ratioP2
59734;SDS011;64362;45.620;4.920;2023-03-31T00:01:33;5.68;;;2.60;;
59734;SDS011;64362;45.620;4.920;2023-03-31T00:03:59;5.18;;;2.95;;
59734;SDS011;64362;45.620;4.920;2023-03-31T00:06:35;4.07;;;2.70;;
59734;SDS011;64362;45.620;4.920;2023-03-31T00:09:09;4.47;;;2.72;;
59734;SDS011;64362;45.620;4.920;2023-03-31T00:11:37;3.75;;;2.45;;
59734;SDS011;64362;45.620;4.920;2023-03-31T00:14:03;6.15;;;3.08;;
59734;SDS011;64362;45.620;4.920;2023-03-31T00:16:31;4.80;;;2.88;;
59734;SDS011;64362;45.620;4.920;2023-03-31T00:19:01;4.00;;;2.60;;
59734;SDS011;64362;45.620;4.920;2023-03-31T00:21:27;3.53;;;2.83;;
59734;SDS011;64362;45.620;4.920;2023-03-31T00:23:58;4.55;;;2.72;;
59734;SDS011;64362;45.620;4.920;2023-03-31T00:26:25;4.88;;;2.60;;
59734;SDS011;64362;45.620;4.920;2023-03-31T00:28:52;5.20;;;3.10;;
59734;SDS011;64362;45.620;4.920;2023-03-31T00:31:18;6.07;;;3.05;;
59734;SDS011;64362;45.620;4.920;2023-03-31T00:33:45;4.88;;;3.25;;
59734;SDS011;64362;45.620;4.920;2023-03-31T00:36:11;4.85;;;2.78;;
59734;SDS011;64362;45.620;4.920;2023-03-31T00:38:36;4.03;;;2.45;;
59734;SDS011;64362;45.620;4.920;2023-03-31T00:41:02;3.78;;;2.72;;
59734;SDS011;64362;45.620;4.920;2023-03-31T00:46:17;4.55;;;2.78;;
59734;SDS011;64362;45.620;4.920;2023-03-31T00:48:49;4.95;;;2.92;;
59734;SDS011;64362;45.620;4.920;2023-03-31T00:51:16;3.90;;;2.70;;
59734;SDS011;64362;45.620;4.920;2023-03-31T00:53:43;4.00;;;2.78;;
59734;SDS011;64362;45.620;4.920;2023-03-31T00:56:12;5.80;;;2.80;;
59734;SDS011;64362;45.620;4.920;2023-03-31T00:58:38;4.72;;;3.00;;
59734;SDS011;64362;45.620;4.920;2023-03-31T01:01:08;4.38;;;3.08;;
59734;SDS011;64362;45.620;4.920;2023-03-31T01:03:35;4.22;;;2.60;;
59734;SDS011;64362;45.620;4.920;2023-03-31T01:06:03;4.10;;;2.63;;
59734;SDS011;64362;45.620;4.920;2023-03-31T01:08:30;3.28;;;2.53;;
59734;SDS011;64362;45.620;4.920;2023-03-31T01:10:57;4.80;;;2.90;;
59734;SDS011;64362;45.620;4.920;2023-03-31T01:13:25;3.75;;;3.08;;
59734;SDS011;64362;45.620;4.920;2023-03-31T01:15:52;3.58;;;2.70;;
59734;SDS011;64362;45.620;4.920;2023-03-31T01:18:17;4.13;;;2.65;;
59734;SDS011;64362;45.620;4.920;2023-03-31T01:29:03;3.97;;;2.70;;
59734;SDS011;64362;45.620;4.920;2023-03-31T01:31:37;4.20;;;2.60;;
59734;SDS011;64362;45.620;4.920;2023-03-31T01:47:39;4.35;;;2.50;;
59734;SDS011;64362;45.620;4.920;2023-03-31T01:55:41;5.55;;;2.75;;
59734;SDS011;64362;45.620;4.920;2023-03-31T01:58:19;4.32;;;3.05;;
59734;SDS011;64362;45.620;4.920;2023-03-31T02:00:54;3.55;;;2.92;;
59734;SDS011;64362;45.620;4.920;2023-03-31T02:03:32;5.00;;;3.10;;
59734;SDS011;64362;45.620;4.920;2023-03-31T02:06:04;4.45;;;2.60;;
59734;SDS011;64362;45.620;4.920;2023-03-31T02:08:39;6.00;;;3.10;;
59734;SDS011;64362;45.620;4.920;2023-03-31T02:11:06;4.15;;;3.22;;
59734;SDS011;64362;45.620;4.920;2023-03-31T02:13:33;4.85;;;3.05;;
59734;SDS011;64362;45.620;4.920;2023-03-31T02:16:01;3.40;;;2.70;;
59734;SDS011;64362;45.620;4.920;2023-03-31T02:18:30;4.80;;;2.88;;
59734;SDS011;64362;45.620;4.920;2023-03-31T02:20:57;4.05;;;2.90;;
59734;SDS011;64362;45.620;4.920;2023-03-31T02:23:27;5.90;;;3.03;;
59734;SDS011;64362;45.620;4.920;2023-03-31T02:26:41;4.78;;;3.15;;
59734;SDS011;64362;45.620;4.920;2023-03-31T02:29:05;3.83;;;3.20;;
59734;SDS011;64362;45.620;4.920;2023-03-31T02:31:37;5.03;;;3.03;;
59734;SDS011;64362;45.620;4.920;2023-03-31T02:34:08;5.28;;;3.13;;
59734;SDS011;64362;45.620;4.920;2023-03-31T02:36:34;4.78;;;3.08;;
59734;SDS011;64362;45.620;4.920;2023-03-31T02:39:07;5.05;;;3.13;;
59734;SDS011;64362;45.620;4.920;2023-03-31T02:41:34;5.63;;;3.10;;
59734;SDS011;64362;45.620;4.920;2023-03-31T02:43:59;4.93;;;3.00;;
59734;SDS011;64362;45.620;4.920;2023-03-31T02:46:25;4.45;;;2.63;;
59734;SDS011;64362;45.620;4.920;2023-03-31T02:48:55;5.72;;;3.35;;
59734;SDS011;64362;45.620;4.920;2023-03-31T03:11:21;5.22;;;2.88;;
59734;SDS011;64362;45.620;4.920;2023-03-31T03:13:53;6.15;;;3.60;;
59734;SDS011;64362;45.620;4.920;2023-03-31T03:16:26;4.30;;;3.05;;
59734;SDS011;64362;45.620;4.920;2023-03-31T03:18:58;5.88;;;2.83;;
59734;SDS011;64362;45.620;4.920;2023-03-31T03:21:25;6.05;;;3.20;;
59734;SDS011;64362;45.620;4.920;2023-03-31T03:23:51;4.82;;;2.90;;
59734;SDS011;64362;45.620;4.920;2023-03-31T03:26:17;6.40;;;3.17;;
59734;SDS011;64362;45.620;4.920;2023-03-31T03:28:50;3.95;;;2.72;;
59734;SDS011;64362;45.620;4.920;2023-03-31T03:31:16;4.97;;;3.25;;
59734;SDS011;64362;45.620;4.920;2023-03-31T03:33:42;6.68;;;2.97;;
59734;SDS011;64362;45.620;4.920;2023-03-31T03:36:07;6.65;;;3.33;;
59734;SDS011;64362;45.620;4.920;2023-03-31T03:38:33;5.50;;;3.17;;
59734;SDS011;64362;45.620;4.920;2023-03-31T03:40:59;4.35;;;2.60;;
59734;SDS011;64362;45.620;4.920;2023-03-31T03:43:24;4.70;;;3.25;;
59734;SDS011;64362;45.620;4.920;2023-03-31T03:45:50;4.10;;;2.95;;
59734;SDS011;64362;45.620;4.920;2023-03-31T03:48:16;5.00;;;2.75;;
59734;SDS011;64362;45.620;4.920;2023-03-31T03:50:42;5.63;;;2.90;;
59734;SDS011;64362;45.620;4.920;2023-03-31T03:53:07;4.72;;;3.08;;
59734;SDS011;64362;45.620;4.920;2023-03-31T03:55:33;5.93;;;3.25;;
59734;SDS011;64362;45.620;4.920;2023-03-31T03:57:58;6.07;;;3.72;;
59734;SDS011;64362;45.620;4.920;2023-03-31T04:00:24;4.30;;;2.88;;
59734;SDS011;64362;45.620;4.920;2023-03-31T04:02:49;4.30;;;2.85;;
59734;SDS011;64362;45.620;4.920;2023-03-31T04:05:15;4.35;;;3.22;;
59734;SDS011;64362;45.620;4.920;2023-03-31T04:07:41;4.75;;;3.03;;
59734;SDS011;64362;45.620;4.920;2023-03-31T04:10:06;7.18;;;3.10;;
59734;SDS011;64362;45.620;4.920;2023-03-31T04:12:33;6.97;;;2.90;;
59734;SDS011;64362;45.620;4.920;2023-03-31T04:14:59;3.92;;;3.00;;
59734;SDS011;64362;45.620;4.920;2023-03-31T04:17:24;4.63;;;2.90;;
59734;SDS011;64362;45.620;4.920;2023-03-31T04:19:57;4.65;;;3.30;;
59734;SDS011;64362;45.620;4.920;2023-03-31T04:22:27;6.28;;;3.17;;
59734;SDS011;64362;45.620;4.920;2023-03-31T04:24:53;5.30;;;2.83;;
59734;SDS011;64362;45.620;4.920;2023-03-31T04:27:23;5.57;;;3.17;;
59734;SDS011;64362;45.620;4.920;2023-03-31T04:29:52;5.28;;;3.22;;
59734;SDS011;64362;45.620;4.920;2023-03-31T04:32:20;5.82;;;3.00;;
59734;SDS011;64362;45.620;4.920;2023-03-31T04:34:46;4.97;;;3.17;;
59734;SDS011;64362;45.620;4.920;2023-03-31T04:37:14;6.20;;;2.92;;
59734;SDS011;64362;45.620;4.920;2023-03-31T04:39:40;5.00;;;3.00;;
59734;SDS011;64362;45.620;4.920;2023-03-31T04:42:06;5.25;;;3.00;;
59734;SDS011;64362;45.620;4.920;2023-03-31T04:44:31;3.92;;;2.78;;
59734;SDS011;64362;45.620;4.920;2023-03-31T04:46:57;7.22;;;3.58;;
59734;SDS011;64362;45.620;4.920;2023-03-31T04:49:26;3.80;;;2.88;;
59734;SDS011;64362;45.620;4.920;2023-03-31T04:51:52;4.68;;;3.33;;
59734;SDS011;64362;45.620;4.920;2023-03-31T04:54:17;4.15;;;2.90;;
59734;SDS011;64362;45.620;4.920;2023-03-31T04:56:43;4.63;;;3.30;;
59734;SDS011;64362;45.620;4.920;2023-03-31T04:59:08;7.03;;;3.53;;
59734;SDS011;64362;45.620;4.920;2023-03-31T05:01:34;5.43;;;2.90;;
59734;SDS011;64362;45.620;4.920;2023-03-31T05:04:00;5.18;;;2.92;;
59734;SDS011;64362;45.620;4.920;2023-03-31T05:06:26;4.82;;;2.85;;
59734;SDS011;64362;45.620;4.920;2023-03-31T05:08:52;6.45;;;3.03;;
59734;SDS011;64362;45.620;4.920;2023-03-31T05:11:17;4.95;;;2.83;;
59734;SDS011;64362;45.620;4.920;2023-03-31T05:13:43;6.78;;;3.65;;
59734;SDS011;64362;45.620;4.920;2023-03-31T05:16:09;5.90;;;2.90;;
59734;SDS011;64362;45.620;4.920;2023-03-31T05:18:38;7.35;;;3.00;;
59734;SDS011;64362;45.620;4.920;2023-03-31T05:21:14;5.78;;;2.70;;
59734;SDS011;64362;45.620;4.920;2023-03-31T05:23:43;5.18;;;2.85;;
59734;SDS011;64362;45.620;4.920;2023-03-31T05:26:10;6.15;;;3.03;;
59734;SDS011;64362;45.620;4.920;2023-03-31T05:28:36;7.13;;;3.17;;
59734;SDS011;64362;45.620;4.920;2023-03-31T05:31:02;6.38;;;2.72;;
59734;SDS011;64362;45.620;4.920;2023-03-31T05:33:29;4.82;;;2.60;;
59734;SDS011;64362;45.620;4.920;2023-03-31T05:35:54;5.07;;;2.78;;
59734;SDS011;64362;45.620;4.920;2023-03-31T05:38:20;5.45;;;2.88;;
59734;SDS011;64362;45.620;4.920;2023-03-31T05:40:46;6.05;;;2.90;;
59734;SDS011;64362;45.620;4.920;2023-03-31T05:43:12;6.95;;;2.85;;
59734;SDS011;64362;45.620;4.920;2023-03-31T05:45:38;9.00;;;3.22;;
59734;SDS011;64362;45.620;4.920;2023-03-31T05:48:04;4.70;;;2.63;;
59734;SDS011;64362;45.620;4.920;2023-03-31T05:50:29;6.57;;;2.90;;
59734;SDS011;64362;45.620;4.920;2023-03-31T05:52:55;6.75;;;2.60;;
59734;SDS011;64362;45.620;4.920;2023-03-31T05:55:21;5.65;;;2.35;;
59734;SDS011;64362;45.620;4.920;2023-03-31T05:57:47;7.65;;;2.20;;
59734;SDS011;64362;45.620;4.920;2023-03-31T06:00:13;5.72;;;2.15;;
59734;SDS011;64362;45.620;4.920;2023-03-31T06:02:39;6.72;;;2.30;;
59734;SDS011;64362;45.620;4.920;2023-03-31T06:05:05;6.15;;;2.25;;
59734;SDS011;64362;45.620;4.920;2023-03-31T06:07:31;8.02;;;2.30;;
59734;SDS011;64362;45.620;4.920;2023-03-31T06:09:56;7.82;;;2.30;;
59734;SDS011;64362;45.620;4.920;2023-03-31T06:12:22;5.57;;;2.30;;
59734;SDS011;64362;45.620;4.920;2023-03-31T06:14:47;6.13;;;2.35;;
59734;SDS011;64362;45.620;4.920;2023-03-31T06:17:13;4.30;;;1.90;;
59734;SDS011;64362;45.620;4.920;2023-03-31T06:19:38;9.18;;;2.15;;
59734;SDS011;64362;45.620;4.920;2023-03-31T06:22:04;3.88;;;2.20;;
59734;SDS011;64362;45.620;4.920;2023-03-31T06:24:29;5.55;;;1.83;;
59734;SDS011;64362;45.620;4.920;2023-03-31T06:26:55;6.82;;;2.05;;
59734;SDS011;64362;45.620;4.920;2023-03-31T06:29:20;7.07;;;2.30;;
59734;SDS011;64362;45.620;4.920;2023-03-31T06:31:46;4.97;;;2.00;;
59734;SDS011;64362;45.620;4.920;2023-03-31T06:34:11;4.80;;;1.92;;
59734;SDS011;64362;45.620;4.920;2023-03-31T06:36:37;5.03;;;2.10;;
59734;SDS011;64362;45.620;4.920;2023-03-31T06:39:02;4.72;;;2.45;;
59734;SDS011;64362;45.620;4.920;2023-03-31T06:41:28;5.10;;;2.40;;
59734;SDS011;64362;45.620;4.920;2023-03-31T06:43:53;7.00;;;2.30;;
59734;SDS011;64362;45.620;4.920;2023-03-31T06:46:19;4.10;;;2.08;;
59734;SDS011;64362;45.620;4.920;2023-03-31T06:48:45;3.97;;;2.20;;
59734;SDS011;64362;45.620;4.920;2023-03-31T06:51:10;6.15;;;2.25;;
59734;SDS011;64362;45.620;4.920;2023-03-31T06:53:37;5.20;;;2.17;;
59734;SDS011;64362;45.620;4.920;2023-03-31T06:56:02;7.85;;;1.98;;
59734;SDS011;64362;45.620;4.920;2023-03-31T06:58:28;6.45;;;2.30;;
59734;SDS011;64362;45.620;4.920;2023-03-31T07:00:54;5.43;;;2.15;;
59734;SDS011;64362;45.620;4.920;2023-03-31T07:03:19;5.60;;;2.53;;
59734;SDS011;64362;45.620;4.920;2023-03-31T07:05:49;5.55;;;2.15;;
59734;SDS011;64362;45.620;4.920;2023-03-31T07:08:16;5.90;;;2.40;;
59734;SDS011;64362;45.620;4.920;2023-03-31T07:10:42;4.78;;;2.05;;
59734;SDS011;64362;45.620;4.920;2023-03-31T07:13:11;7.90;;;2.40;;
59734;SDS011;64362;45.620;4.920;2023-03-31T07:15:37;6.03;;;2.40;;
59734;SDS011;64362;45.620;4.920;2023-03-31T07:18:03;6.25;;;2.10;;
59734;SDS011;64362;45.620;4.920;2023-03-31T07:20:28;8.88;;;2.25;;
59734;SDS011;64362;45.620;4.920;2023-03-31T07:22:55;4.38;;;2.22;;
59734;SDS011;64362;45.620;4.920;2023-03-31T07:25:21;8.82;;;2.08;;
59734;SDS011;64362;45.620;4.920;2023-03-31T07:27:46;4.05;;;2.00;;
59734;SDS011;64362;45.620;4.920;2023-03-31T07:30:13;3.70;;;2.00;;
59734;SDS011;64362;45.620;4.920;2023-03-31T07:32:40;5.38;;;2.45;;
59734;SDS011;64362;45.620;4.920;2023-03-31T07:35:09;4.47;;;2.20;;
59734;SDS011;64362;45.620;4.920;2023-03-31T07:37:36;6.32;;;2.53;;
59734;SDS011;64362;45.620;4.920;2023-03-31T07:40:03;5.40;;;2.42;;
59734;SDS011;64362;45.620;4.920;2023-03-31T07:42:32;4.45;;;2.35;;
59734;SDS011;64362;45.620;4.920;2023-03-31T07:44:58;3.80;;;2.13;;
59734;SDS011;64362;45.620;4.920;2023-03-31T07:47:24;8.70;;;2.50;;
59734;SDS011;64362;45.620;4.920;2023-03-31T07:49:49;8.02;;;2.75;;
59734;SDS011;64362;45.620;4.920;2023-03-31T07:52:15;6.40;;;2.28;;
59734;SDS011;64362;45.620;4.920;2023-03-31T07:54:41;5.90;;;2.65;;
59734;SDS011;64362;45.620;4.920;2023-03-31T07:57:06;5.07;;;2.55;;
59734;SDS011;64362;45.620;4.920;2023-03-31T07:59:32;4.72;;;2.35;;
59734;SDS011;64362;45.620;4.920;2023-03-31T08:01:58;4.57;;;2.80;;
59734;SDS011;64362;45.620;4.920;2023-03-31T08:04:23;5.57;;;2.10;;
59734;SDS011;64362;45.620;4.920;2023-03-31T08:06:49;4.88;;;2.35;;
59734;SDS011;64362;45.620;4.920;2023-03-31T08:09:15;5.05;;;2.60;;
59734;SDS011;64362;45.620;4.920;2023-03-31T08:11:41;4.78;;;2.85;;
59734;SDS011;64362;45.620;4.920;2023-03-31T08:14:07;4.45;;;2.28;;
59734;SDS011;64362;45.620;4.920;2023-03-31T08:16:33;6.65;;;2.60;;
59734;SDS011;64362;45.620;4.920;2023-03-31T08:18:58;6.63;;;2.58;;
59734;SDS011;64362;45.620;4.920;2023-03-31T08:21:23;5.15;;;2.47;;
59734;SDS011;64362;45.620;4.920;2023-03-31T08:23:51;3.75;;;2.40;;
59734;SDS011;64362;45.620;4.920;2023-03-31T08:26:18;4.13;;;2.65;;
59734;SDS011;64362;45.620;4.920;2023-03-31T08:28:44;7.03;;;2.67;;
59734;SDS011;64362;45.620;4.920;2023-03-31T08:31:10;5.45;;;2.45;;
59734;SDS011;64362;45.620;4.920;2023-03-31T08:33:36;5.68;;;2.70;;
59734;SDS011;64362;45.620;4.920;2023-03-31T08:36:03;4.22;;;2.50;;
59734;SDS011;64362;45.620;4.920;2023-03-31T08:38:30;5.70;;;2.90;;
59734;SDS011;64362;45.620;4.920;2023-03-31T08:40:59;5.85;;;2.60;;
59734;SDS011;64362;45.620;4.920;2023-03-31T08:43:26;5.25;;;3.22;;
59734;SDS011;64362;45.620;4.920;2023-03-31T08:45:54;4.75;;;2.50;;
59734;SDS011;64362;45.620;4.920;2023-03-31T08:48:21;5.57;;;2.90;;
59734;SDS011;64362;45.620;4.920;2023-03-31T08:50:51;4.60;;;2.60;;
59734;SDS011;64362;45.620;4.920;2023-03-31T08:53:34;4.50;;;3.03;;
59734;SDS011;64362;45.620;4.920;2023-03-31T08:56:01;3.78;;;2.90;;
59734;SDS011;64362;45.620;4.920;2023-03-31T08:58:35;5.22;;;2.72;;
59734;SDS011;64362;45.620;4.920;2023-03-31T09:07:09;6.43;;;3.17;;
59734;SDS011;64362;45.620;4.920;2023-03-31T09:12:25;5.28;;;3.30;;
59734;SDS011;64362;45.620;4.920;2023-03-31T09:14:56;6.18;;;3.25;;
59734;SDS011;64362;45.620;4.920;2023-03-31T09:17:50;7.07;;;3.10;;
59734;SDS011;64362;45.620;4.920;2023-03-31T09:20:20;5.43;;;3.17;;
59734;SDS011;64362;45.620;4.920;2023-03-31T09:22:47;8.57;;;3.63;;
59734;SDS011;64362;45.620;4.920;2023-03-31T09:25:20;5.35;;;3.35;;
59734;SDS011;64362;45.620;4.920;2023-03-31T09:27:49;5.38;;;3.30;;
59734;SDS011;64362;45.620;4.920;2023-03-31T09:30:23;6.78;;;3.92;;
59734;SDS011;64362;45.620;4.920;2023-03-31T09:32:52;5.30;;;3.53;;
59734;SDS011;64362;45.620;4.920;2023-03-31T09:35:24;6.82;;;4.25;;
59734;SDS011;64362;45.620;4.920;2023-03-31T09:37:51;6.72;;;3.90;;
59734;SDS011;64362;45.620;4.920;2023-03-31T09:40:21;7.10;;;4.07;;
59734;SDS011;64362;45.620;4.920;2023-03-31T09:45:40;6.72;;;3.85;;
59734;SDS011;64362;45.620;4.920;2023-03-31T09:48:13;6.07;;;3.88;;
59734;SDS011;64362;45.620;4.920;2023-03-31T09:50:46;5.90;;;3.33;;
59734;SDS011;64362;45.620;4.920;2023-03-31T09:53:17;6.50;;;3.47;;
59734;SDS011;64362;45.620;4.920;2023-03-31T09:56:05;5.90;;;3.63;;
59734;SDS011;64362;45.620;4.920;2023-03-31T09:58:44;6.22;;;3.65;;
59734;SDS011;64362;45.620;4.920;2023-03-31T10:01:11;8.60;;;4.28;;
59734;SDS011;64362;45.620;4.920;2023-03-31T10:03:46;6.47;;;3.40;;
59734;SDS011;64362;45.620;4.920;2023-03-31T10:06:14;7.00;;;3.70;;
59734;SDS011;64362;45.620;4.920;2023-03-31T10:11:24;7.20;;;3.20;;
59734;SDS011;64362;45.620;4.920;2023-03-31T10:13:52;4.43;;;3.22;;
59734;SDS011;64362;45.620;4.920;2023-03-31T10:18:54;6.40;;;3.42;;
59734;SDS011;64362;45.620;4.920;2023-03-31T10:21:22;4.95;;;3.72;;
59734;SDS011;64362;45.620;4.920;2023-03-31T10:23:50;7.10;;;3.25;;
59734;SDS011;64362;45.620;4.920;2023-03-31T10:26:17;6.70;;;3.30;;
59734;SDS011;64362;45.620;4.920;2023-03-31T10:28:46;6.25;;;3.55;;
59734;SDS011;64362;45.620;4.920;2023-03-31T10:31:14;9.20;;;3.65;;
59734;SDS011;64362;45.620;4.920;2023-03-31T10:33:41;5.80;;;3.25;;
59734;SDS011;64362;45.620;4.920;2023-03-31T10:36:15;6.65;;;3.15;;
59734;SDS011;64362;45.620;4.920;2023-03-31T10:38:44;5.27;;;3.43;;
59734;SDS011;64362;45.620;4.920;2023-03-31T10:41:10;4.75;;;3.28;;
59734;SDS011;64362;45.620;4.920;2023-03-31T10:43:43;6.70;;;3.58;;
59734;SDS011;64362;45.620;4.920;2023-03-31T10:46:13;6.47;;;3.17;;
59734;SDS011;64362;45.620;4.920;2023-03-31T10:48:39;6.07;;;3.55;;
59734;SDS011;64362;45.620;4.920;2023-03-31T10:53:51;6.72;;;3.42;;
59734;SDS011;64362;45.620;4.920;2023-03-31T11:01:50;4.80;;;3.22;;
59734;SDS011;64362;45.620;4.920;2023-03-31T11:04:43;5.35;;;3.08;;
59734;SDS011;64362;45.620;4.920;2023-03-31T11:07:42;6.00;;;3.63;;
59734;SDS011;64362;45.620;4.920;2023-03-31T11:10:39;6.47;;;3.58;;
59734;SDS011;64362;45.620;4.920;2023-03-31T11:27:29;7.72;;;3.80;;
59734;SDS011;64362;45.620;4.920;2023-03-31T11:46:16;6.75;;;3.45;;
59734;SDS011;64362;45.620;4.920;2023-03-31T11:48:54;6.85;;;2.92;;
59734;SDS011;64362;45.620;4.920;2023-03-31T11:51:24;8.50;;;3.80;;
59734;SDS011;64362;45.620;4.920;2023-03-31T11:53:53;8.80;;;3.60;;
59734;SDS011;64362;45.620;4.920;2023-03-31T11:56:20;6.65;;;3.03;;
59734;SDS011;64362;45.620;4.920;2023-03-31T11:58:53;6.18;;;2.95;;
59734;SDS011;64362;45.620;4.920;2023-03-31T12:01:29;6.63;;;2.65;;
59734;SDS011;64362;45.620;4.920;2023-03-31T12:04:00;5.72;;;3.10;;
59734;SDS011;64362;45.620;4.920;2023-03-31T12:06:33;7.38;;;2.70;;
59734;SDS011;64362;45.620;4.920;2023-03-31T12:09:20;6.28;;;2.70;;
59734;SDS011;64362;45.620;4.920;2023-03-31T12:16:54;5.57;;;2.30;;
59734;SDS011;64362;45.620;4.920;2023-03-31T12:19:47;6.90;;;2.60;;
59734;SDS011;64362;45.620;4.920;2023-03-31T12:24:53;7.43;;;2.47;;
59734;SDS011;64362;45.620;4.920;2023-03-31T12:27:21;6.75;;;2.40;;
59734;SDS011;64362;45.620;4.920;2023-03-31T12:29:52;5.57;;;2.58;;
59734;SDS011;64362;45.620;4.920;2023-03-31T12:32:22;6.13;;;3.00;;
59734;SDS011;64362;45.620;4.920;2023-03-31T12:34:56;13.45;;;3.97;;
59734;SDS011;64362;45.620;4.920;2023-03-31T12:37:28;8.18;;;3.55;;
59734;SDS011;64362;45.620;4.920;2023-03-31T12:45:29;6.78;;;2.85;;
59734;SDS011;64362;45.620;4.920;2023-03-31T12:48:15;7.43;;;2.92;;
59734;SDS011;64362;45.620;4.920;2023-03-31T12:56:03;6.32;;;3.17;;
59734;SDS011;64362;45.620;4.920;2023-03-31T13:03:44;7.50;;;3.63;;
59734;SDS011;64362;45.620;4.920;2023-03-31T13:08:55;7.43;;;4.50;;
59734;SDS011;64362;45.620;4.920;2023-03-31T13:14:01;7.20;;;3.78;;
59734;SDS011;64362;45.620;4.920;2023-03-31T13:16:28;7.82;;;3.55;;
59734;SDS011;64362;45.620;4.920;2023-03-31T13:18:54;5.75;;;3.33;;
59734;SDS011;64362;45.620;4.920;2023-03-31T13:21:20;7.30;;;3.38;;
59734;SDS011;64362;45.620;4.920;2023-03-31T13:23:47;7.03;;;3.10;;
59734;SDS011;64362;45.620;4.920;2023-03-31T13:37:18;4.03;;;2.08;;
59734;SDS011;64362;45.620;4.920;2023-03-31T13:40:07;5.53;;;2.30;;
59734;SDS011;64362;45.620;4.920;2023-03-31T13:55:54;3.83;;;1.70;;
59734;SDS011;64362;45.620;4.920;2023-03-31T14:01:30;4.10;;;1.70;;
59734;SDS011;64362;45.620;4.920;2023-03-31T14:06:54;3.80;;;1.50;;
59734;SDS011;64362;45.620;4.920;2023-03-31T14:09:29;4.13;;;1.40;;
59734;SDS011;64362;45.620;4.920;2023-03-31T14:11:59;4.07;;;1.67;;
59734;SDS011;64362;45.620;4.920;2023-03-31T14:14:26;6.47;;;2.00;;
59734;SDS011;64362;45.620;4.920;2023-03-31T14:16:57;5.70;;;1.80;;
59734;SDS011;64362;45.620;4.920;2023-03-31T14:19:40;4.38;;;1.40;;
59734;SDS011;64362;45.620;4.920;2023-03-31T14:31:13;3.70;;;1.25;;
59734;SDS011;64362;45.620;4.920;2023-03-31T14:34:03;4.80;;;1.13;;
59734;SDS011;64362;45.620;4.920;2023-03-31T14:36:46;2.40;;;1.23;;
59734;SDS011;64362;45.620;4.920;2023-03-31T14:39:16;4.13;;;1.10;;
59734;SDS011;64362;45.620;4.920;2023-03-31T14:41:50;2.90;;;1.00;;
59734;SDS011;64362;45.620;4.920;2023-03-31T14:44:19;3.53;;;1.00;;
59734;SDS011;64362;45.620;4.920;2023-03-31T14:46:45;3.20;;;1.10;;
59734;SDS011;64362;45.620;4.920;2023-03-31T14:51:42;2.90;;;0.95;;
59734;SDS011;64362;45.620;4.920;2023-03-31T14:54:13;6.60;;;1.15;;
59734;SDS011;64362;45.620;4.920;2023-03-31T14:56:40;3.60;;;0.73;;
59734;SDS011;64362;45.620;4.920;2023-03-31T14:59:06;2.65;;;0.68;;
59734;SDS011;64362;45.620;4.920;2023-03-31T15:01:32;4.53;;;1.27;;
59734;SDS011;64362;45.620;4.920;2023-03-31T15:04:10;3.78;;;0.73;;
59734;SDS011;64362;45.620;4.920;2023-03-31T15:06:40;4.03;;;0.95;;
59734;SDS011;64362;45.620;4.920;2023-03-31T15:09:06;4.45;;;0.90;;
59734;SDS011;64362;45.620;4.920;2023-03-31T15:11:34;4.22;;;0.80;;
59734;SDS011;64362;45.620;4.920;2023-03-31T15:14:00;4.90;;;1.00;;
59734;SDS011;64362;45.620;4.920;2023-03-31T15:16:44;4.93;;;0.80;;
59734;SDS011;64362;45.620;4.920;2023-03-31T15:19:14;3.70;;;0.88;;
59734;SDS011;64362;45.620;4.920;2023-03-31T15:21:41;2.78;;;0.80;;
59734;SDS011;64362;45.620;4.920;2023-03-31T15:24:09;3.22;;;0.65;;
59734;SDS011;64362;45.620;4.920;2023-03-31T15:26:38;4.05;;;1.10;;
59734;SDS011;64362;45.620;4.920;2023-03-31T15:29:18;3.08;;;0.77;;
59734;SDS011;64362;45.620;4.920;2023-03-31T15:31:46;2.75;;;1.00;;
59734;SDS011;64362;45.620;4.920;2023-03-31T15:34:24;2.22;;;0.70;;
59734;SDS011;64362;45.620;4.920;2023-03-31T15:36:53;4.57;;;0.90;;
59734;SDS011;64362;45.620;4.920;2023-03-31T15:39:19;2.47;;;0.60;;
59734;SDS011;64362;45.620;4.920;2023-03-31T15:41:46;3.33;;;0.63;;
59734;SDS011;64362;45.620;4.920;2023-03-31T15:44:46;6.82;;;1.10;;
59734;SDS011;64362;45.620;4.920;2023-03-31T15:49:45;3.13;;;0.98;;
59734;SDS011;64362;45.620;4.920;2023-03-31T15:52:31;4.15;;;0.90;;
59734;SDS011;64362;45.620;4.920;2023-03-31T15:54:59;3.15;;;0.80;;
59734;SDS011;64362;45.620;4.920;2023-03-31T15:57:33;3.88;;;0.90;;
59734;SDS011;64362;45.620;4.920;2023-03-31T16:00:00;3.33;;;0.80;;
59734;SDS011;64362;45.620;4.920;2023-03-31T16:02:40;3.50;;;1.00;;
59734;SDS011;64362;45.620;4.920;2023-03-31T16:05:15;3.35;;;0.80;;
59734;SDS011;64362;45.620;4.920;2023-03-31T16:07:46;3.13;;;0.65;;
59734;SDS011;64362;45.620;4.920;2023-03-31T16:10:16;3.22;;;0.63;;
59734;SDS011;64362;45.620;4.920;2023-03-31T16:12:55;1.33;;;0.43;;
59734;SDS011;64362;45.620;4.920;2023-03-31T16:15:35;2.38;;;0.50;;
59734;SDS011;64362;45.620;4.920;2023-03-31T16:18:04;1.52;;;0.50;;
59734;SDS011;64362;45.620;4.920;2023-03-31T16:20:34;1.77;;;0.60;;
59734;SDS011;64362;45.620;4.920;2023-03-31T16:23:02;1.92;;;0.60;;
59734;SDS011;64362;45.620;4.920;2023-03-31T16:25:42;0.80;;;0.40;;
59734;SDS011;64362;45.620;4.920;2023-03-31T16:28:11;2.72;;;0.60;;
59734;SDS011;64362;45.620;4.920;2023-03-31T16:30:39;5.13;;;0.80;;
59734;SDS011;64362;45.620;4.920;2023-03-31T16:33:06;2.22;;;0.55;;
59734;SDS011;64362;45.620;4.920;2023-03-31T16:35:43;1.75;;;0.80;;
59734;SDS011;64362;45.620;4.920;2023-03-31T16:38:13;2.28;;;0.50;;
59734;SDS011;64362;45.620;4.920;2023-03-31T16:40:41;1.35;;;0.50;;
59734;SDS011;64362;45.620;4.920;2023-03-31T16:43:21;1.98;;;0.50;;
59734;SDS011;64362;45.620;4.920;2023-03-31T16:45:48;3.22;;;0.55;;
59734;SDS011;64362;45.620;4.920;2023-03-31T16:48:15;1.70;;;0.50;;
59734;SDS011;64362;45.620;4.920;2023-03-31T16:50:43;2.00;;;0.30;;
59734;SDS011;64362;45.620;4.920;2023-03-31T16:53:12;2.13;;;0.75;;
59734;SDS011;64362;45.620;4.920;2023-03-31T16:55:39;1.60;;;0.50;;
59734;SDS011;64362;45.620;4.920;2023-03-31T16:58:05;1.67;;;0.55;;
59734;SDS011;64362;45.620;4.920;2023-03-31T17:00:32;2.08;;;0.60;;
59734;SDS011;64362;45.620;4.920;2023-03-31T17:03:04;2.35;;;0.57;;
59734;SDS011;64362;45.620;4.920;2023-03-31T17:05:30;1.45;;;0.50;;
59734;SDS011;64362;45.620;4.920;2023-03-31T17:07:58;1.17;;;0.43;;
59734;SDS011;64362;45.620;4.920;2023-03-31T17:10:24;2.15;;;0.50;;
59734;SDS011;64362;45.620;4.920;2023-03-31T17:12:50;1.77;;;0.50;;
59734;SDS011;64362;45.620;4.920;2023-03-31T17:15:16;2.90;;;0.77;;
59734;SDS011;64362;45.620;4.920;2023-03-31T17:17:41;1.50;;;0.52;;
59734;SDS011;64362;45.620;4.920;2023-03-31T17:20:07;2.03;;;0.68;;
59734;SDS011;64362;45.620;4.920;2023-03-31T17:22:33;2.17;;;0.77;;
59734;SDS011;64362;45.620;4.920;2023-03-31T17:25:00;2.67;;;0.60;;
59734;SDS011;64362;45.620;4.920;2023-03-31T17:27:26;3.90;;;1.13;;
59734;SDS011;64362;45.620;4.920;2023-03-31T17:29:53;3.67;;;0.80;;
59734;SDS011;64362;45.620;4.920;2023-03-31T17:32:19;3.22;;;0.57;;
59734;SDS011;64362;45.620;4.920;2023-03-31T17:34:46;2.60;;;1.02;;
59734;SDS011;64362;45.620;4.920;2023-03-31T17:37:16;4.30;;;0.70;;
59734;SDS011;64362;45.620;4.920;2023-03-31T17:39:42;5.38;;;1.02;;
59734;SDS011;64362;45.620;4.920;2023-03-31T17:42:09;6.63;;;1.05;;
59734;SDS011;64362;45.620;4.920;2023-03-31T17:44:36;8.48;;;1.23;;
59734;SDS011;64362;45.620;4.920;2023-03-31T17:47:02;6.80;;;1.02;;
59734;SDS011;64362;45.620;4.920;2023-03-31T17:49:27;9.63;;;1.30;;
59734;SDS011;64362;45.620;4.920;2023-03-31T17:51:53;6.68;;;1.52;;
59734;SDS011;64362;45.620;4.920;2023-03-31T17:54:19;8.55;;;1.40;;
59734;SDS011;64362;45.620;4.920;2023-03-31T17:56:44;7.55;;;1.30;;
59734;SDS011;64362;45.620;4.920;2023-03-31T17:59:13;6.15;;;1.40;;